Terminal Aerodrome Forecast
Issued by NWS

Home | Current Version | Previous Version | Text Only | Print | Product List | Glossary On
Versions: 1 2 3 4 5 6 7 8 9 10 11 12 13 14 15 16 17 18 19 20
628
FTUS46 KMFR 161140
TAFRBG
TAF
KRBG 161140Z 1612/1712 00000KT 1/4SM FG VV002
     FM161700 00000KT 4SM BR SCT005 BKN100
     FM161900 VRB03KT P6SM BKN080
     FM170200 00000KT 4SM BR BKN002 BKN060
     FM170800 00000KT 1/4SM FG OVC002=

USA.gov is the U.S. government's official web portal to all federal, state and local government web resources and services.